Etusivu
METAR-TAF:

METAR-TAF

Lentoasemat :

Jasper, Georgia, Yhdysvallat

Leveyspiiri: 34-27-12N, Pituuspiiri: 084-27-26W, korkeus merenpinnasta: 468 m

Tämänhetkinen sää

Tämä raportti tehtiin 28 minuuttia sitten, kello 08.55 UTC
tyyntä
Lämpötila 6°C
Kosteus 36%
Ilmanpaine 1032 hPa
Näkyvyys: 16.1 km
selkeää

METAR: KJZP 080855Z AUTO 00000KT 10SM CLR 06/M08 A3047 RMK AO2 T00551085

Aika: 04:23 (09:23 UTC)


TAF: puuttuu

Säähavainnot ja -ennusteet yli 4000 lentoasemalta (METAR- ja TAF-raportit).

Käytössä olevat sääasemat on merkitty karttaan keltaisilla ja punaisilla pisteillä.

Aseta hiiri pisteen päälle nähdäksesi sääaseman nimen.

Klikkaa sitten nähdäksesi säähavainnot ja -ennusteet.

Kartan vaihtaminen: klikkaa mustalla rastilla varustettuja vihreitä pisteitä, niin voit zoomata sisään; viivalla varustettua vihreää pistettä, niin voit zoomata ulos tai vihreitä nuolia, niin pääset viereisille kartoille.


METAR-TAF: